Meadowlakes, Texas
Current Conditions -  °F | °C
As of 5:55 AM on Friday 19 Dec 2014 (Local Time) from KDZB Reporting Station
Drizzle Drizzle  
Wind Chill: 45°   Ceiling: 800
Heat Index: 47°   Visibility: 4mi
Dew Point: 47°   Wind: 6mph
Humidity: 100%   Direction: 10°N
Pressure: 30.11"   Gusts: 16mph
Location:  30.5925°N, 98.2219°W
Report Text: KDZB 191155Z AUTO 01005G14KT 4SM DZ OVC008 09/09 A3011 RMK AO2 P0002 60003 70003 T00860086 10101 20086
Loading
Personal Weather Stations






























Interactive Weather Map New forecast layout! Learn more

10-Day Weather Forecast

Advertisements
Track Severe Weather on mobile